sensor_id;sensor_type;location;lat;lon;timestamp;P1;durP1;ratioP1;P2;durP2;ratioP2
74371;SDS011;62885;51.374;6.170;2024-01-15T00:00:13;21.42;;;10.40;;
74371;SDS011;62885;51.374;6.170;2024-01-15T00:02:39;25.85;;;10.63;;
74371;SDS011;62885;51.374;6.170;2024-01-15T00:05:04;23.63;;;10.85;;
74371;SDS011;62885;51.374;6.170;2024-01-15T00:07:30;23.58;;;11.50;;
74371;SDS011;62885;51.374;6.170;2024-01-15T00:09:55;25.23;;;11.15;;
74371;SDS011;62885;51.374;6.170;2024-01-15T00:12:20;22.33;;;10.55;;
74371;SDS011;62885;51.374;6.170;2024-01-15T00:14:46;21.33;;;11.02;;
74371;SDS011;62885;51.374;6.170;2024-01-15T00:17:11;22.98;;;13.27;;
74371;SDS011;62885;51.374;6.170;2024-01-15T00:19:37;25.02;;;12.30;;
74371;SDS011;62885;51.374;6.170;2024-01-15T00:22:03;15.10;;;8.07;;
74371;SDS011;62885;51.374;6.170;2024-01-15T00:24:28;19.55;;;10.88;;
74371;SDS011;62885;51.374;6.170;2024-01-15T00:26:54;25.52;;;10.95;;
74371;SDS011;62885;51.374;6.170;2024-01-15T00:29:20;21.65;;;11.52;;
74371;SDS011;62885;51.374;6.170;2024-01-15T00:31:45;21.83;;;12.05;;
74371;SDS011;62885;51.374;6.170;2024-01-15T00:34:11;22.95;;;10.55;;
74371;SDS011;62885;51.374;6.170;2024-01-15T00:36:36;22.58;;;11.05;;
74371;SDS011;62885;51.374;6.170;2024-01-15T00:39:01;21.92;;;10.70;;
74371;SDS011;62885;51.374;6.170;2024-01-15T00:41:30;18.65;;;9.18;;
74371;SDS011;62885;51.374;6.170;2024-01-15T00:43:55;22.58;;;10.07;;
74371;SDS011;62885;51.374;6.170;2024-01-15T00:46:21;16.63;;;8.93;;
74371;SDS011;62885;51.374;6.170;2024-01-15T00:48:46;19.45;;;9.82;;
74371;SDS011;62885;51.374;6.170;2024-01-15T00:51:12;20.73;;;8.93;;
74371;SDS011;62885;51.374;6.170;2024-01-15T00:53:38;20.30;;;9.45;;
74371;SDS011;62885;51.374;6.170;2024-01-15T00:56:03;18.48;;;10.13;;
74371;SDS011;62885;51.374;6.170;2024-01-15T00:58:29;22.02;;;10.32;;
74371;SDS011;62885;51.374;6.170;2024-01-15T01:00:54;15.80;;;8.93;;
74371;SDS011;62885;51.374;6.170;2024-01-15T01:03:20;21.92;;;9.70;;
74371;SDS011;62885;51.374;6.170;2024-01-15T01:05:45;17.50;;;7.68;;
74371;SDS011;62885;51.374;6.170;2024-01-15T01:08:11;20.02;;;8.27;;
74371;SDS011;62885;51.374;6.170;2024-01-15T01:10:37;17.98;;;8.27;;
74371;SDS011;62885;51.374;6.170;2024-01-15T01:13:02;21.38;;;9.32;;
74371;SDS011;62885;51.374;6.170;2024-01-15T01:15:28;16.80;;;8.52;;
74371;SDS011;62885;51.374;6.170;2024-01-15T01:17:53;18.50;;;8.73;;
74371;SDS011;62885;51.374;6.170;2024-01-15T01:20:18;16.10;;;7.78;;
74371;SDS011;62885;51.374;6.170;2024-01-15T01:22:44;19.95;;;7.80;;
74371;SDS011;62885;51.374;6.170;2024-01-15T01:25:09;16.65;;;7.78;;
74371;SDS011;62885;51.374;6.170;2024-01-15T01:27:35;15.30;;;6.55;;
74371;SDS011;62885;51.374;6.170;2024-01-15T01:30:00;14.13;;;6.40;;
74371;SDS011;62885;51.374;6.170;2024-01-15T01:32:26;14.40;;;7.07;;
74371;SDS011;62885;51.374;6.170;2024-01-15T01:34:51;11.43;;;6.28;;
74371;SDS011;62885;51.374;6.170;2024-01-15T01:37:16;15.70;;;6.30;;
74371;SDS011;62885;51.374;6.170;2024-01-15T01:39:42;11.15;;;6.40;;
74371;SDS011;62885;51.374;6.170;2024-01-15T01:42:08;11.02;;;6.15;;
74371;SDS011;62885;51.374;6.170;2024-01-15T01:44:34;13.55;;;6.38;;
74371;SDS011;62885;51.374;6.170;2024-01-15T01:46:59;14.38;;;6.72;;
74371;SDS011;62885;51.374;6.170;2024-01-15T01:49:26;14.05;;;5.28;;
74371;SDS011;62885;51.374;6.170;2024-01-15T01:51:52;11.82;;;5.43;;
74371;SDS011;62885;51.374;6.170;2024-01-15T01:54:22;11.40;;;4.75;;
74371;SDS011;62885;51.374;6.170;2024-01-15T01:56:47;10.73;;;4.32;;
74371;SDS011;62885;51.374;6.170;2024-01-15T01:59:15;11.50;;;4.72;;
74371;SDS011;62885;51.374;6.170;2024-01-15T02:01:40;9.60;;;4.78;;
74371;SDS011;62885;51.374;6.170;2024-01-15T02:04:06;9.63;;;5.22;;
74371;SDS011;62885;51.374;6.170;2024-01-15T02:06:33;8.60;;;3.75;;
74371;SDS011;62885;51.374;6.170;2024-01-15T02:08:58;9.82;;;4.45;;
74371;SDS011;62885;51.374;6.170;2024-01-15T02:11:24;10.05;;;3.90;;
74371;SDS011;62885;51.374;6.170;2024-01-15T02:13:49;10.18;;;4.20;;
74371;SDS011;62885;51.374;6.170;2024-01-15T02:16:15;9.02;;;4.00;;
74371;SDS011;62885;51.374;6.170;2024-01-15T02:18:44;13.43;;;4.15;;
74371;SDS011;62885;51.374;6.170;2024-01-15T02:21:10;8.27;;;3.78;;
74371;SDS011;62885;51.374;6.170;2024-01-15T02:23:36;15.43;;;4.57;;
74371;SDS011;62885;51.374;6.170;2024-01-15T02:26:02;9.23;;;4.65;;
74371;SDS011;62885;51.374;6.170;2024-01-15T02:28:28;9.57;;;4.03;;
74371;SDS011;62885;51.374;6.170;2024-01-15T02:30:54;10.15;;;4.82;;
74371;SDS011;62885;51.374;6.170;2024-01-15T02:33:19;13.18;;;4.30;;
74371;SDS011;62885;51.374;6.170;2024-01-15T02:35:45;11.85;;;4.65;;
74371;SDS011;62885;51.374;6.170;2024-01-15T02:38:11;11.50;;;5.18;;
74371;SDS011;62885;51.374;6.170;2024-01-15T02:40:37;10.45;;;5.38;;
74371;SDS011;62885;51.374;6.170;2024-01-15T02:43:03;11.50;;;5.85;;
74371;SDS011;62885;51.374;6.170;2024-01-15T02:45:29;9.43;;;5.55;;
74371;SDS011;62885;51.374;6.170;2024-01-15T02:47:54;15.82;;;6.40;;
74371;SDS011;62885;51.374;6.170;2024-01-15T02:50:20;11.23;;;6.40;;
74371;SDS011;62885;51.374;6.170;2024-01-15T02:52:45;13.32;;;6.72;;
74371;SDS011;62885;51.374;6.170;2024-01-15T02:55:11;12.60;;;6.55;;
74371;SDS011;62885;51.374;6.170;2024-01-15T02:57:36;12.95;;;6.60;;
74371;SDS011;62885;51.374;6.170;2024-01-15T03:00:02;13.35;;;7.25;;
74371;SDS011;62885;51.374;6.170;2024-01-15T03:02:28;17.83;;;7.53;;
74371;SDS011;62885;51.374;6.170;2024-01-15T03:04:54;15.30;;;6.97;;
74371;SDS011;62885;51.374;6.170;2024-01-15T03:07:21;9.15;;;4.88;;
74371;SDS011;62885;51.374;6.170;2024-01-15T03:09:47;18.08;;;6.53;;
74371;SDS011;62885;51.374;6.170;2024-01-15T03:12:12;12.48;;;6.75;;
74371;SDS011;62885;51.374;6.170;2024-01-15T03:14:37;13.55;;;6.18;;
74371;SDS011;62885;51.374;6.170;2024-01-15T03:17:03;12.50;;;5.55;;
74371;SDS011;62885;51.374;6.170;2024-01-15T03:19:28;14.73;;;5.40;;
74371;SDS011;62885;51.374;6.170;2024-01-15T03:21:54;11.70;;;5.90;;
74371;SDS011;62885;51.374;6.170;2024-01-15T03:24:20;11.52;;;4.72;;
74371;SDS011;62885;51.374;6.170;2024-01-15T03:26:45;12.55;;;5.60;;
74371;SDS011;62885;51.374;6.170;2024-01-15T03:29:10;14.05;;;5.43;;
74371;SDS011;62885;51.374;6.170;2024-01-15T03:31:36;10.35;;;5.78;;
74371;SDS011;62885;51.374;6.170;2024-01-15T03:34:01;13.40;;;4.78;;
74371;SDS011;62885;51.374;6.170;2024-01-15T03:36:26;9.13;;;4.95;;
74371;SDS011;62885;51.374;6.170;2024-01-15T03:38:52;11.77;;;4.72;;
74371;SDS011;62885;51.374;6.170;2024-01-15T03:41:17;10.10;;;4.38;;
74371;SDS011;62885;51.374;6.170;2024-01-15T03:43:42;7.95;;;4.57;;
74371;SDS011;62885;51.374;6.170;2024-01-15T03:46:08;9.20;;;4.78;;
74371;SDS011;62885;51.374;6.170;2024-01-15T03:48:36;8.55;;;4.28;;
74371;SDS011;62885;51.374;6.170;2024-01-15T03:51:01;9.85;;;4.65;;
74371;SDS011;62885;51.374;6.170;2024-01-15T03:53:27;10.30;;;4.20;;
74371;SDS011;62885;51.374;6.170;2024-01-15T03:55:52;8.68;;;3.60;;
74371;SDS011;62885;51.374;6.170;2024-01-15T03:58:18;10.10;;;4.15;;
74371;SDS011;62885;51.374;6.170;2024-01-15T04:00:43;10.40;;;4.03;;
74371;SDS011;62885;51.374;6.170;2024-01-15T04:03:08;8.93;;;4.25;;
74371;SDS011;62885;51.374;6.170;2024-01-15T04:05:34;9.23;;;4.82;;
74371;SDS011;62885;51.374;6.170;2024-01-15T04:07:59;7.20;;;3.60;;
74371;SDS011;62885;51.374;6.170;2024-01-15T04:10:25;10.85;;;5.63;;
74371;SDS011;62885;51.374;6.170;2024-01-15T04:12:50;10.32;;;4.47;;
74371;SDS011;62885;51.374;6.170;2024-01-15T04:15:16;10.52;;;4.38;;
74371;SDS011;62885;51.374;6.170;2024-01-15T04:17:41;10.95;;;4.30;;
74371;SDS011;62885;51.374;6.170;2024-01-15T04:20:07;9.80;;;5.00;;
74371;SDS011;62885;51.374;6.170;2024-01-15T04:22:33;11.73;;;4.65;;
74371;SDS011;62885;51.374;6.170;2024-01-15T04:25:00;12.27;;;4.15;;
74371;SDS011;62885;51.374;6.170;2024-01-15T04:27:25;8.70;;;4.28;;
74371;SDS011;62885;51.374;6.170;2024-01-15T04:29:50;8.20;;;3.78;;
74371;SDS011;62885;51.374;6.170;2024-01-15T04:32:16;9.60;;;4.00;;
74371;SDS011;62885;51.374;6.170;2024-01-15T04:34:41;9.60;;;4.20;;
74371;SDS011;62885;51.374;6.170;2024-01-15T04:37:06;10.13;;;4.40;;
74371;SDS011;62885;51.374;6.170;2024-01-15T04:39:32;7.22;;;3.90;;
74371;SDS011;62885;51.374;6.170;2024-01-15T04:41:57;11.95;;;4.65;;
74371;SDS011;62885;51.374;6.170;2024-01-15T04:44:23;9.80;;;4.20;;
74371;SDS011;62885;51.374;6.170;2024-01-15T04:46:48;7.35;;;3.85;;
74371;SDS011;62885;51.374;6.170;2024-01-15T04:49:14;9.75;;;3.95;;
74371;SDS011;62885;51.374;6.170;2024-01-15T04:51:39;8.57;;;4.13;;
74371;SDS011;62885;51.374;6.170;2024-01-15T04:54:04;10.45;;;3.10;;
74371;SDS011;62885;51.374;6.170;2024-01-15T04:56:30;4.07;;;1.92;;
74371;SDS011;62885;51.374;6.170;2024-01-15T04:58:55;7.22;;;3.72;;
74371;SDS011;62885;51.374;6.170;2024-01-15T05:01:21;7.70;;;4.00;;
74371;SDS011;62885;51.374;6.170;2024-01-15T05:03:46;7.22;;;3.53;;
74371;SDS011;62885;51.374;6.170;2024-01-15T05:06:14;6.15;;;2.65;;
74371;SDS011;62885;51.374;6.170;2024-01-15T05:08:40;8.90;;;3.80;;
74371;SDS011;62885;51.374;6.170;2024-01-15T05:11:05;6.50;;;3.10;;
74371;SDS011;62885;51.374;6.170;2024-01-15T05:13:30;10.88;;;2.63;;
74371;SDS011;62885;51.374;6.170;2024-01-15T05:15:56;8.13;;;2.45;;
74371;SDS011;62885;51.374;6.170;2024-01-15T05:18:21;5.53;;;2.42;;
74371;SDS011;62885;51.374;6.170;2024-01-15T05:20:47;5.78;;;2.10;;
74371;SDS011;62885;51.374;6.170;2024-01-15T05:23:12;4.28;;;2.03;;
74371;SDS011;62885;51.374;6.170;2024-01-15T05:25:37;7.07;;;2.10;;
74371;SDS011;62885;51.374;6.170;2024-01-15T05:28:04;5.85;;;2.53;;
74371;SDS011;62885;51.374;6.170;2024-01-15T05:30:30;7.28;;;2.10;;
74371;SDS011;62885;51.374;6.170;2024-01-15T05:32:55;10.05;;;3.17;;
74371;SDS011;62885;51.374;6.170;2024-01-15T05:35:22;4.53;;;1.52;;
74371;SDS011;62885;51.374;6.170;2024-01-15T05:37:47;5.65;;;2.15;;
74371;SDS011;62885;51.374;6.170;2024-01-15T05:40:13;5.63;;;1.88;;
74371;SDS011;62885;51.374;6.170;2024-01-15T05:42:39;3.45;;;1.55;;
74371;SDS011;62885;51.374;6.170;2024-01-15T05:45:05;6.60;;;2.28;;
74371;SDS011;62885;51.374;6.170;2024-01-15T05:47:31;4.55;;;1.90;;
74371;SDS011;62885;51.374;6.170;2024-01-15T05:49:56;4.32;;;1.38;;
74371;SDS011;62885;51.374;6.170;2024-01-15T05:52:22;4.13;;;1.40;;
74371;SDS011;62885;51.374;6.170;2024-01-15T05:54:49;4.20;;;1.60;;
74371;SDS011;62885;51.374;6.170;2024-01-15T05:57:15;3.47;;;0.98;;
74371;SDS011;62885;51.374;6.170;2024-01-15T05:59:40;2.00;;;1.10;;
74371;SDS011;62885;51.374;6.170;2024-01-15T06:02:05;5.80;;;1.23;;
74371;SDS011;62885;51.374;6.170;2024-01-15T06:04:31;1.58;;;0.85;;
74371;SDS011;62885;51.374;6.170;2024-01-15T06:06:56;5.40;;;1.30;;
74371;SDS011;62885;51.374;6.170;2024-01-15T06:09:21;2.28;;;1.70;;
74371;SDS011;62885;51.374;6.170;2024-01-15T06:11:47;4.47;;;1.55;;
74371;SDS011;62885;51.374;6.170;2024-01-15T06:14:12;5.53;;;1.30;;
74371;SDS011;62885;51.374;6.170;2024-01-15T06:16:37;1.30;;;0.75;;
74371;SDS011;62885;51.374;6.170;2024-01-15T06:19:03;5.05;;;1.20;;
74371;SDS011;62885;51.374;6.170;2024-01-15T06:21:28;6.22;;;1.30;;
74371;SDS011;62885;51.374;6.170;2024-01-15T06:23:55;3.30;;;1.60;;
74371;SDS011;62885;51.374;6.170;2024-01-15T06:26:21;9.63;;;1.77;;
74371;SDS011;62885;51.374;6.170;2024-01-15T06:28:47;8.80;;;2.45;;
74371;SDS011;62885;51.374;6.170;2024-01-15T06:31:13;5.82;;;2.35;;
74371;SDS011;62885;51.374;6.170;2024-01-15T06:33:38;6.35;;;2.22;;
74371;SDS011;62885;51.374;6.170;2024-01-15T06:36:03;5.07;;;2.60;;
74371;SDS011;62885;51.374;6.170;2024-01-15T06:38:30;6.72;;;3.35;;
74371;SDS011;62885;51.374;6.170;2024-01-15T06:40:55;6.60;;;3.28;;
74371;SDS011;62885;51.374;6.170;2024-01-15T06:43:21;10.30;;;3.95;;
74371;SDS011;62885;51.374;6.170;2024-01-15T06:45:46;8.32;;;4.20;;
74371;SDS011;62885;51.374;6.170;2024-01-15T06:48:12;9.57;;;5.10;;
74371;SDS011;62885;51.374;6.170;2024-01-15T06:50:41;11.30;;;6.72;;
74371;SDS011;62885;51.374;6.170;2024-01-15T06:53:10;13.32;;;6.50;;
74371;SDS011;62885;51.374;6.170;2024-01-15T06:55:35;13.98;;;6.43;;
74371;SDS011;62885;51.374;6.170;2024-01-15T06:58:01;15.45;;;7.18;;
74371;SDS011;62885;51.374;6.170;2024-01-15T07:00:26;12.30;;;6.57;;
74371;SDS011;62885;51.374;6.170;2024-01-15T07:02:52;9.85;;;5.57;;
74371;SDS011;62885;51.374;6.170;2024-01-15T07:05:18;16.25;;;7.43;;
74371;SDS011;62885;51.374;6.170;2024-01-15T07:07:43;11.50;;;6.72;;
74371;SDS011;62885;51.374;6.170;2024-01-15T07:10:08;11.98;;;5.80;;
74371;SDS011;62885;51.374;6.170;2024-01-15T07:12:35;11.18;;;6.55;;
74371;SDS011;62885;51.374;6.170;2024-01-15T07:15:00;9.13;;;5.40;;
74371;SDS011;62885;51.374;6.170;2024-01-15T07:17:27;9.50;;;5.28;;
74371;SDS011;62885;51.374;6.170;2024-01-15T07:19:53;9.15;;;5.68;;
74371;SDS011;62885;51.374;6.170;2024-01-15T07:22:18;10.18;;;5.60;;
74371;SDS011;62885;51.374;6.170;2024-01-15T07:24:44;11.43;;;5.43;;
74371;SDS011;62885;51.374;6.170;2024-01-15T07:27:10;8.68;;;4.32;;
74371;SDS011;62885;51.374;6.170;2024-01-15T07:29:35;8.15;;;4.43;;
74371;SDS011;62885;51.374;6.170;2024-01-15T07:32:02;7.63;;;3.70;;
74371;SDS011;62885;51.374;6.170;2024-01-15T07:34:29;8.07;;;4.38;;
74371;SDS011;62885;51.374;6.170;2024-01-15T07:36:54;13.00;;;3.08;;
74371;SDS011;62885;51.374;6.170;2024-01-15T07:39:20;6.40;;;3.22;;
74371;SDS011;62885;51.374;6.170;2024-01-15T07:41:45;5.53;;;2.85;;
74371;SDS011;62885;51.374;6.170;2024-01-15T07:44:10;5.75;;;2.95;;
74371;SDS011;62885;51.374;6.170;2024-01-15T07:46:36;5.82;;;2.78;;
74371;SDS011;62885;51.374;6.170;2024-01-15T07:49:01;7.13;;;2.70;;
74371;SDS011;62885;51.374;6.170;2024-01-15T07:51:28;7.05;;;3.38;;
74371;SDS011;62885;51.374;6.170;2024-01-15T07:53:54;5.80;;;2.42;;
74371;SDS011;62885;51.374;6.170;2024-01-15T07:56:20;5.00;;;2.40;;
74371;SDS011;62885;51.374;6.170;2024-01-15T07:58:46;4.80;;;2.55;;
74371;SDS011;62885;51.374;6.170;2024-01-15T08:01:12;5.65;;;2.47;;
74371;SDS011;62885;51.374;6.170;2024-01-15T08:03:37;5.10;;;2.50;;
74371;SDS011;62885;51.374;6.170;2024-01-15T08:06:03;5.10;;;1.90;;
74371;SDS011;62885;51.374;6.170;2024-01-15T08:08:28;3.58;;;1.80;;
74371;SDS011;62885;51.374;6.170;2024-01-15T08:10:54;4.15;;;1.73;;
74371;SDS011;62885;51.374;6.170;2024-01-15T08:13:19;4.88;;;1.98;;
74371;SDS011;62885;51.374;6.170;2024-01-15T08:15:45;5.50;;;2.08;;
74371;SDS011;62885;51.374;6.170;2024-01-15T08:18:10;3.83;;;2.00;;
74371;SDS011;62885;51.374;6.170;2024-01-15T08:20:36;5.63;;;1.98;;
74371;SDS011;62885;51.374;6.170;2024-01-15T08:23:02;4.95;;;2.67;;
74371;SDS011;62885;51.374;6.170;2024-01-15T08:25:27;4.35;;;1.70;;
74371;SDS011;62885;51.374;6.170;2024-01-15T08:27:52;4.25;;;2.10;;
74371;SDS011;62885;51.374;6.170;2024-01-15T08:30:18;3.67;;;2.03;;
74371;SDS011;62885;51.374;6.170;2024-01-15T08:32:44;4.22;;;2.00;;
74371;SDS011;62885;51.374;6.170;2024-01-15T08:35:09;4.75;;;2.17;;
74371;SDS011;62885;51.374;6.170;2024-01-15T08:37:35;3.42;;;2.05;;
74371;SDS011;62885;51.374;6.170;2024-01-15T08:40:00;6.80;;;1.77;;
74371;SDS011;62885;51.374;6.170;2024-01-15T08:42:26;4.70;;;2.28;;
74371;SDS011;62885;51.374;6.170;2024-01-15T08:44:51;5.25;;;2.22;;
74371;SDS011;62885;51.374;6.170;2024-01-15T08:47:16;5.35;;;1.98;;
74371;SDS011;62885;51.374;6.170;2024-01-15T08:49:42;3.67;;;1.98;;
74371;SDS011;62885;51.374;6.170;2024-01-15T08:52:09;4.15;;;1.85;;
74371;SDS011;62885;51.374;6.170;2024-01-15T08:54:34;4.15;;;1.75;;
74371;SDS011;62885;51.374;6.170;2024-01-15T08:57:00;5.03;;;1.65;;
74371;SDS011;62885;51.374;6.170;2024-01-15T08:59:25;5.43;;;2.08;;
74371;SDS011;62885;51.374;6.170;2024-01-15T09:01:51;5.30;;;2.25;;
74371;SDS011;62885;51.374;6.170;2024-01-15T09:04:17;6.88;;;2.22;;
74371;SDS011;62885;51.374;6.170;2024-01-15T09:06:45;6.82;;;2.65;;
74371;SDS011;62885;51.374;6.170;2024-01-15T09:09:14;5.30;;;2.72;;
74371;SDS011;62885;51.374;6.170;2024-01-15T09:11:40;4.82;;;3.20;;
74371;SDS011;62885;51.374;6.170;2024-01-15T09:14:05;5.40;;;2.70;;
74371;SDS011;62885;51.374;6.170;2024-01-15T09:16:31;5.13;;;2.55;;
74371;SDS011;62885;51.374;6.170;2024-01-15T09:18:56;3.88;;;2.10;;
74371;SDS011;62885;51.374;6.170;2024-01-15T09:21:24;4.22;;;1.80;;
74371;SDS011;62885;51.374;6.170;2024-01-15T09:23:50;4.90;;;2.67;;
74371;SDS011;62885;51.374;6.170;2024-01-15T09:26:16;6.43;;;2.58;;
74371;SDS011;62885;51.374;6.170;2024-01-15T09:28:41;3.58;;;1.77;;
74371;SDS011;62885;51.374;6.170;2024-01-15T09:31:07;6.47;;;2.60;;
74371;SDS011;62885;51.374;6.170;2024-01-15T09:33:32;6.35;;;2.72;;
74371;SDS011;62885;51.374;6.170;2024-01-15T09:36:01;4.65;;;2.25;;
74371;SDS011;62885;51.374;6.170;2024-01-15T09:38:30;3.97;;;1.95;;
74371;SDS011;62885;51.374;6.170;2024-01-15T09:40:56;7.43;;;2.67;;
74371;SDS011;62885;51.374;6.170;2024-01-15T09:43:22;4.72;;;2.45;;
74371;SDS011;62885;51.374;6.170;2024-01-15T09:45:49;5.72;;;2.40;;
74371;SDS011;62885;51.374;6.170;2024-01-15T09:48:15;6.00;;;2.47;;
74371;SDS011;62885;51.374;6.170;2024-01-15T09:50:41;6.68;;;2.40;;
74371;SDS011;62885;51.374;6.170;2024-01-15T09:53:07;4.05;;;1.85;;
74371;SDS011;62885;51.374;6.170;2024-01-15T09:55:34;5.05;;;2.40;;
74371;SDS011;62885;51.374;6.170;2024-01-15T09:58:01;3.60;;;1.85;;
74371;SDS011;62885;51.374;6.170;2024-01-15T10:00:27;7.18;;;2.65;;
74371;SDS011;62885;51.374;6.170;2024-01-15T10:02:53;5.95;;;2.40;;
74371;SDS011;62885;51.374;6.170;2024-01-15T10:05:19;3.55;;;1.95;;
74371;SDS011;62885;51.374;6.170;2024-01-15T10:07:44;4.32;;;1.95;;
74371;SDS011;62885;51.374;6.170;2024-01-15T10:10:11;6.38;;;2.47;;
74371;SDS011;62885;51.374;6.170;2024-01-15T10:12:36;5.57;;;2.75;;
74371;SDS011;62885;51.374;6.170;2024-01-15T10:15:04;7.88;;;2.92;;
74371;SDS011;62885;51.374;6.170;2024-01-15T10:17:29;5.25;;;2.30;;
74371;SDS011;62885;51.374;6.170;2024-01-15T10:19:56;5.35;;;2.25;;
74371;SDS011;62885;51.374;6.170;2024-01-15T10:22:22;4.30;;;2.05;;
74371;SDS011;62885;51.374;6.170;2024-01-15T10:24:48;4.40;;;2.05;;
74371;SDS011;62885;51.374;6.170;2024-01-15T10:27:14;5.03;;;1.88;;
74371;SDS011;62885;51.374;6.170;2024-01-15T10:29:41;4.05;;;1.77;;
74371;SDS011;62885;51.374;6.170;2024-01-15T10:32:07;3.10;;;1.52;;
74371;SDS011;62885;51.374;6.170;2024-01-15T10:34:39;2.40;;;1.23;;
74371;SDS011;62885;51.374;6.170;2024-01-15T10:37:07;2.67;;;1.50;;
74371;SDS011;62885;51.374;6.170;2024-01-15T10:39:33;1.98;;;1.20;;
74371;SDS011;62885;51.374;6.170;2024-01-15T10:41:58;4.03;;;1.10;;
74371;SDS011;62885;51.374;6.170;2024-01-15T10:44:24;1.77;;;0.98;;
74371;SDS011;62885;51.374;6.170;2024-01-15T10:46:50;1.08;;;0.85;;
74371;SDS011;62885;51.374;6.170;2024-01-15T10:49:16;5.47;;;1.17;;
74371;SDS011;62885;51.374;6.170;2024-01-15T10:51:44;1.17;;;0.73;;
74371;SDS011;62885;51.374;6.170;2024-01-15T10:54:09;5.13;;;1.20;;
74371;SDS011;62885;51.374;6.170;2024-01-15T10:56:36;2.05;;;1.10;;
74371;SDS011;62885;51.374;6.170;2024-01-15T10:59:03;1.45;;;0.90;;
74371;SDS011;62885;51.374;6.170;2024-01-15T11:01:29;3.17;;;1.80;;
74371;SDS011;62885;51.374;6.170;2024-01-15T11:03:56;2.92;;;0.88;;
74371;SDS011;62885;51.374;6.170;2024-01-15T11:06:24;2.78;;;0.70;;
74371;SDS011;62885;51.374;6.170;2024-01-15T11:08:52;5.18;;;1.17;;
74371;SDS011;62885;51.374;6.170;2024-01-15T11:11:18;1.80;;;0.90;;
74371;SDS011;62885;51.374;6.170;2024-01-15T11:13:48;0.98;;;0.70;;
74371;SDS011;62885;51.374;6.170;2024-01-15T11:16:17;2.95;;;1.30;;
74371;SDS011;62885;51.374;6.170;2024-01-15T11:18:43;3.45;;;1.42;;
74371;SDS011;62885;51.374;6.170;2024-01-15T11:21:31;1.73;;;1.02;;
74371;SDS011;62885;51.374;6.170;2024-01-15T11:23:57;1.30;;;0.98;;
74371;SDS011;62885;51.374;6.170;2024-01-15T11:29:03;2.08;;;0.88;;
74371;SDS011;62885;51.374;6.170;2024-01-15T11:34:05;6.95;;;2.65;;
74371;SDS011;62885;51.374;6.170;2024-01-15T11:41:55;2.65;;;1.30;;
74371;SDS011;62885;51.374;6.170;2024-01-15T11:44:25;6.80;;;2.15;;
74371;SDS011;62885;51.374;6.170;2024-01-15T11:47:01;3.55;;;1.58;;
74371;SDS011;62885;51.374;6.170;2024-01-15T11:49:37;3.05;;;1.23;;
74371;SDS011;62885;51.374;6.170;2024-01-15T11:52:31;6.90;;;1.80;;
74371;SDS011;62885;51.374;6.170;2024-01-15T11:55:00;4.43;;;1.60;;
74371;SDS011;62885;51.374;6.170;2024-01-15T11:57:52;4.10;;;1.75;;
74371;SDS011;62885;51.374;6.170;2024-01-15T12:00:17;6.82;;;2.40;;
74371;SDS011;62885;51.374;6.170;2024-01-15T12:02:46;8.93;;;2.95;;
74371;SDS011;62885;51.374;6.170;2024-01-15T12:05:13;5.60;;;2.30;;
74371;SDS011;62885;51.374;6.170;2024-01-15T12:07:40;8.27;;;3.03;;
74371;SDS011;62885;51.374;6.170;2024-01-15T12:10:10;5.05;;;2.63;;
74371;SDS011;62885;51.374;6.170;2024-01-15T12:15:30;5.38;;;2.75;;
74371;SDS011;62885;51.374;6.170;2024-01-15T12:17:57;7.65;;;3.08;;
74371;SDS011;62885;51.374;6.170;2024-01-15T12:20:26;6.10;;;3.13;;
74371;SDS011;62885;51.374;6.170;2024-01-15T12:22:52;7.32;;;3.05;;
74371;SDS011;62885;51.374;6.170;2024-01-15T12:25:18;5.45;;;2.50;;
74371;SDS011;62885;51.374;6.170;2024-01-15T12:27:44;8.38;;;2.38;;
74371;SDS011;62885;51.374;6.170;2024-01-15T12:30:11;5.28;;;2.50;;
74371;SDS011;62885;51.374;6.170;2024-01-15T12:32:37;6.43;;;2.80;;
74371;SDS011;62885;51.374;6.170;2024-01-15T12:35:02;4.93;;;2.53;;
74371;SDS011;62885;51.374;6.170;2024-01-15T12:37:29;6.07;;;2.28;;
74371;SDS011;62885;51.374;6.170;2024-01-15T12:39:55;4.93;;;2.30;;
74371;SDS011;62885;51.374;6.170;2024-01-15T12:42:21;18.35;;;8.43;;
74371;SDS011;62885;51.374;6.170;2024-01-15T12:44:46;7.07;;;3.10;;
74371;SDS011;62885;51.374;6.170;2024-01-15T12:47:11;3.67;;;2.05;;
74371;SDS011;62885;51.374;6.170;2024-01-15T12:49:38;4.13;;;1.50;;
74371;SDS011;62885;51.374;6.170;2024-01-15T12:52:07;4.43;;;1.23;;
74371;SDS011;62885;51.374;6.170;2024-01-15T12:54:34;3.17;;;1.13;;
74371;SDS011;62885;51.374;6.170;2024-01-15T12:56:59;1.45;;;1.00;;
74371;SDS011;62885;51.374;6.170;2024-01-15T12:59:24;5.20;;;1.95;;
74371;SDS011;62885;51.374;6.170;2024-01-15T13:01:50;3.03;;;1.38;;
74371;SDS011;62885;51.374;6.170;2024-01-15T13:04:22;2.50;;;1.10;;
74371;SDS011;62885;51.374;6.170;2024-01-15T13:06:49;1.92;;;0.95;;
74371;SDS011;62885;51.374;6.170;2024-01-15T13:09:14;1.85;;;1.15;;
74371;SDS011;62885;51.374;6.170;2024-01-15T13:11:40;2.80;;;0.75;;
74371;SDS011;62885;51.374;6.170;2024-01-15T13:14:05;1.63;;;0.80;;
74371;SDS011;62885;51.374;6.170;2024-01-15T13:16:31;3.03;;;0.95;;
74371;SDS011;62885;51.374;6.170;2024-01-15T13:18:57;2.17;;;0.80;;
74371;SDS011;62885;51.374;6.170;2024-01-15T13:21:23;1.20;;;0.77;;
74371;SDS011;62885;51.374;6.170;2024-01-15T13:23:50;0.95;;;0.70;;
74371;SDS011;62885;51.374;6.170;2024-01-15T13:26:16;1.40;;;0.82;;
74371;SDS011;62885;51.374;6.170;2024-01-15T13:28:43;1.30;;;0.75;;
74371;SDS011;62885;51.374;6.170;2024-01-15T13:31:09;1.55;;;0.68;;
74371;SDS011;62885;51.374;6.170;2024-01-15T13:33:35;1.90;;;0.93;;
74371;SDS011;62885;51.374;6.170;2024-01-15T13:36:00;1.63;;;1.02;;
74371;SDS011;62885;51.374;6.170;2024-01-15T13:38:27;1.40;;;0.85;;
74371;SDS011;62885;51.374;6.170;2024-01-15T13:40:53;2.05;;;1.17;;
74371;SDS011;62885;51.374;6.170;2024-01-15T13:43:20;1.80;;;1.00;;
74371;SDS011;62885;51.374;6.170;2024-01-15T13:45:46;6.47;;;2.17;;
74371;SDS011;62885;51.374;6.170;2024-01-15T13:48:11;2.85;;;1.27;;
74371;SDS011;62885;51.374;6.170;2024-01-15T13:50:37;1.70;;;1.02;;
74371;SDS011;62885;51.374;6.170;2024-01-15T13:53:03;2.80;;;1.00;;
74371;SDS011;62885;51.374;6.170;2024-01-15T13:55:29;2.38;;;0.70;;
74371;SDS011;62885;51.374;6.170;2024-01-15T13:57:55;3.15;;;1.20;;
74371;SDS011;62885;51.374;6.170;2024-01-15T14:00:21;7.82;;;1.70;;
74371;SDS011;62885;51.374;6.170;2024-01-15T14:02:48;3.78;;;1.50;;
74371;SDS011;62885;51.374;6.170;2024-01-15T14:05:14;3.40;;;1.60;;
74371;SDS011;62885;51.374;6.170;2024-01-15T14:07:41;2.22;;;1.10;;
74371;SDS011;62885;51.374;6.170;2024-01-15T14:10:08;4.38;;;1.25;;
74371;SDS011;62885;51.374;6.170;2024-01-15T14:12:35;2.45;;;1.42;;
74371;SDS011;62885;51.374;6.170;2024-01-15T14:15:01;1.60;;;0.95;;
74371;SDS011;62885;51.374;6.170;2024-01-15T14:17:28;4.13;;;1.33;;
74371;SDS011;62885;51.374;6.170;2024-01-15T14:19:57;1.60;;;1.10;;
74371;SDS011;62885;51.374;6.170;2024-01-15T14:22:23;1.67;;;0.93;;
74371;SDS011;62885;51.374;6.170;2024-01-15T14:24:49;3.05;;;1.33;;
74371;SDS011;62885;51.374;6.170;2024-01-15T14:27:15;2.30;;;1.52;;
74371;SDS011;62885;51.374;6.170;2024-01-15T14:29:41;1.90;;;1.27;;
74371;SDS011;62885;51.374;6.170;2024-01-15T14:32:06;2.97;;;1.42;;
74371;SDS011;62885;51.374;6.170;2024-01-15T14:34:32;4.15;;;1.50;;
74371;SDS011;62885;51.374;6.170;2024-01-15T14:36:57;2.88;;;1.23;;
74371;SDS011;62885;51.374;6.170;2024-01-15T14:39:23;2.33;;;1.10;;
74371;SDS011;62885;51.374;6.170;2024-01-15T14:41:48;1.73;;;0.88;;
74371;SDS011;62885;51.374;6.170;2024-01-15T14:44:14;5.35;;;2.33;;
74371;SDS011;62885;51.374;6.170;2024-01-15T14:46:39;6.30;;;2.60;;
74371;SDS011;62885;51.374;6.170;2024-01-15T14:49:05;2.95;;;1.48;;